• Join FlightAware (Why Join?)
  • Login
  • US Flag 
02:58AM EDT


 

Airport Tracker/Info


-or-


 

Live Flight TrackerFlight Track Log ✈ UAL262 ✈ 19-Dec-2013 ✈ KIAH - KLAS

Flight Track Log - Related Links

Times and Time Zones

All times are in EST time to prevent confusion due to time zone crossing. See the UAL262 flight status page for this flight to view local times or setup timezone preferences in your user account.

Time Position Orientation Groundspeed Altitude Reporting Facility
EST Latitude Longitude Course Direction KTS MPH feet Rate Location/Type
07:12PM 29.9617 -95.3436 263° West 145 167 800  Level Houston Center
07:13PM 29.9550 -95.4069 263° West 263 303 3,200 1,980 Climbing Houston Center
07:13PM 29.9636 -95.4342 290° West 235 270 4,000 2,700 Climbing Houston Center
07:14PM 30.0047 -95.5103 302° West 276 318 7,000 2,940 Climbing Houston Center
07:15PM 30.0153 -95.5950 278° West 267 307 10,100 2,100 Climbing Houston Center
07:16PM 30.0275 -95.6881 279° West 288 331 11,400 1,740 Climbing Houston Center
07:17PM 30.0408 -95.7922 278° West 324 373 13,800 1,980 Climbing Houston Center
07:18PM 30.0547 -95.8989 279° West 336 387 15,600 1,980 Climbing Houston Center
07:19PM 30.0722 -96.0344 279° West 349 402 18,000 1,920 Climbing Houston Center
07:20PM 30.0872 -96.1483 279° West 359 413 19,600 1,440 Climbing Houston Center
07:21PM 30.1019 -96.2658 278° West 369 425 21,100 1,620 Climbing Houston Center
07:23PM 30.1206 -96.3858 280° West 380 437 23,000 1,560 Climbing Houston Center
07:24PM 30.1411 -96.5158 280° West 381 438 24,400 1,080 Climbing Houston Center
07:25PM 30.1594 -96.6425 280° West 393 452 25,300 1,020 Climbing Houston Center
07:26PM 30.1800 -96.7722 280° West 404 465 26,600 1,200 Climbing Houston Center
07:27PM 30.1994 -96.9047 280° West 409 471 27,900 1,320 Climbing Houston Center
07:28PM 30.2189 -97.0347 280° West 408 470 29,400 1,380 Climbing Houston Center
07:29PM 30.2406 -97.1850 280° West 404 465 30,800 1,560 Climbing Houston Center
07:30PM 30.2583 -97.3103 279° West 397 457 32,700 1,440 Climbing Houston Center
07:31PM 30.2731 -97.4125 279° West 332 382 33,800 600 Climbing Houston Center
07:32PM 30.2933 -97.5514 280° West 378 435 34,000 60 Climbing Houston Center
07:33PM 30.3119 -97.6772 280° West 390 449 34,000  Level Houston Center
07:34PM 30.3289 -97.8047 279° West 396 456 34,000  Level Houston Center
07:35PM 30.3478 -97.9314 280° West 395 455 34,000  Level Houston Center
07:36PM 30.3656 -98.0583 279° West 394 453 34,000  Level Houston Center
07:37PM 30.4072 -98.2017 289° West 399 459 34,000  Level Houston Center
07:38PM 30.4442 -98.3247 289° West 399 459 34,000  Level Houston Center
07:39PM 30.4819 -98.4478 290° West 400 460 34,000  Level Houston Center
07:40PM 30.5175 -98.5694 289° West 396 456 34,000  Level Houston Center
07:41PM 30.5536 -98.6922 289° West 396 456 34,000  Level Houston Center
07:42PM 30.5906 -98.8150 289° West 398 458 34,000  Level Houston Center
07:43PM 30.6242 -98.9369 288° West 395 455 34,000  Level Houston Center
07:44PM 30.6619 -99.0575 290° West 393 452 34,000 -60 Level Houston Center
07:45PM 30.6978 -99.1850 288° West 391 450 33,900 -60 Descending Houston Center
07:46PM 30.7336 -99.3050 289° West 393 452 33,900  Level Houston Center
07:47PM 30.7689 -99.4256 289° West 395 455 34,000  Climbing Houston Center
07:48PM 30.8097 -99.5700 288° West 395 455 34,000  Level Houston Center
07:49PM 30.8444 -99.6911 288° West 397 457 34,000  Level Houston Center
07:50PM 30.8792 -99.8111 289° West 393 452 34,000 -60 Level Houston Center
07:51PM 30.9128 -99.9319 288° West 395 455 33,900 -60 Descending Houston Center
07:53PM 30.9478 -100.0519 289° West 394 453 33,900  Level Houston Center
07:54PM 30.9886 -100.2000 288° West 401 461 34,000  Climbing Houston Center
07:55PM 31.0242 -100.3233 289° West 403 464 34,000  Level Houston Center
07:56PM 31.0633 -100.4456 291° West 403 464 34,000  Level Houston Center
07:57PM 31.1267 -100.5567 304° West 410 472 34,000 -60 Level Houston Center
07:58PM 31.1978 -100.6617 308° West 412 474 33,900 -60 Descending Houston Center
07:59PM 31.2694 -100.7669 309° West 414 476 33,900  Level Houston Center
08:00PM 31.3533 -100.8919 308° West 409 471 33,900  Level Houston Center
08:01PM 31.4194 -100.9864 309° West 410 472 33,900  Level Fort Worth Center
08:02PM 31.4900 -101.0933 308° West 415 478 34,000  Climbing Fort Worth Center
08:03PM 31.5622 -101.2000 308° West 419 482 34,000  Level Fort Worth Center
08:04PM 31.6336 -101.3072 308° West 419 482 34,000  Level Fort Worth Center
08:05PM 31.7042 -101.4142 308° West 417 480 34,000 -60 Level Fort Worth Center
08:06PM 31.7900 -101.5425 308° West 418 481 33,900 -60 Descending Fort Worth Center
08:07PM 31.8606 -101.6508 307° West 418 481 33,900  Level Fort Worth Center
08:08PM 31.9314 -101.7600 307° West 422 486 33,900  Level Fort Worth Center
08:09PM 32.0025 -101.8678 308° West 421 484 33,900  Level Fort Worth Center
08:10PM 32.0733 -101.9758 308° West 419 482 34,000  Climbing Fort Worth Center
08:11PM 32.1542 -102.1006 307° West 421 484 34,000  Level Fort Worth Center
08:12PM 32.2250 -102.2094 308° West 419 482 34,000  Level Fort Worth Center
08:13PM 32.2956 -102.3186 307° West 418 481 34,000  Level Fort Worth Center
08:14PM 32.3658 -102.4278 307° West 414 476 34,000 -60 Level Fort Worth Center
08:15PM 32.4389 -102.5406 308° West 417 480 33,900  Descending Fort Worth Center
08:16PM 32.5106 -102.6506 308° West 419 482 34,000  Climbing Fort Worth Center
08:17PM 32.5808 -102.7606 307° West 416 479 34,000  Level Fort Worth Center
08:18PM 32.6661 -102.8928 307° West 418 481 34,000  Level Fort Worth Center
08:19PM 32.7372 -103.0044 307° West 424 488 34,000  Level Fort Worth Center
08:20PM 32.8078 -103.1156 307° West 422 486 34,000  Level Fort Worth Center
08:21PM 32.8772 -103.2281 306° West 423 487 34,000  Level Fort Worth Center
08:22PM 32.9489 -103.3394 307° West 424 488 34,000  Level Fort Worth Center
08:23PM 33.0197 -103.4525 307° West 427 491 34,000  Level Fort Worth Center
08:24PM 33.1039 -103.5900 306° West 429 494 34,000  Level Fort Worth Center
08:25PM 33.1753 -103.7039 307° West 429 494 34,000  Level Fort Worth Center
08:26PM 33.2450 -103.8183 306° West 429 494 34,000  Level Fort Worth Center
08:28PM 33.3150 -103.9300 307° West 422 486 34,000  Level Fort Worth Center
08:29PM 33.3833 -104.0414 306° West 419 482 34,000  Level Fort Worth Center
08:30PM 33.4717 -104.1703 309° West 418 481 34,000  Level Fort Worth Center
08:31PM 33.5403 -104.2808 307° West 416 479 34,000  Level Fort Worth Center
08:32PM 33.6067 -104.3914 306° West 413 475 34,000  Level Fort Worth Center
08:33PM 33.6742 -104.5008 307° West 411 473 34,000  Level Fort Worth Center
08:34PM 33.7406 -104.6106 306° West 408 470 34,000  Level Fort Worth Center
08:35PM 33.8225 -104.7447 306° West 414 476 34,000  Level Fort Worth Center
08:36PM 33.8906 -104.8583 306° West 420 483 34,000  Level Fort Worth Center
08:37PM 33.9825 -105.0131 306° West 424 488 34,000  Level Albuquerque Center
08:38PM 34.0517 -105.1261 306° West 433 498 34,000  Level Albuquerque Center
08:39PM 34.1233 -105.2450 306° West 434 499 34,100  Climbing Albuquerque Center
08:40PM 34.1944 -105.3633 306° West 432 497 34,000 -60 Descending Albuquerque Center
08:41PM 34.2667 -105.4839 306° West 436 502 34,000 780 Level Albuquerque Center
08:42PM 34.3369 -105.6022 306° West 432 497 35,600 960 Climbing Albuquerque Center
08:43PM 34.4036 -105.7150 306° West 417 480 36,000 360 Climbing Albuquerque Center
08:44PM 34.4739 -105.8328 306° West 421 484 36,400 540 Climbing Albuquerque Center
08:45PM 34.5528 -105.9742 304° West 428 493 37,200 720 Climbing Albuquerque Center
08:46PM 34.5753 -106.0894 283° West 406 467 37,900 360 Climbing Albuquerque Center
08:47PM 34.5972 -106.2192 282° West 394 453 38,000  Climbing Albuquerque Center
08:48PM 34.6194 -106.3519 282° West 397 457 38,000  Level Albuquerque Center
08:49PM 34.6458 -106.5053 282° West 388 447 38,000 -60 Level Albuquerque Center
08:50PM 34.6681 -106.6319 282° West 384 442 37,900 -60 Descending Albuquerque Center
08:51PM 34.6883 -106.7578 281° West 380 437 37,900  Level Albuquerque Center
08:53PM 34.7106 -106.8864 282° West 381 438 38,000  Climbing Albuquerque Center
08:54PM 34.7331 -107.0219 281° West 381 438 38,000  Level Albuquerque Center
08:55PM 34.7539 -107.1483 281° West 382 440 38,100  Climbing Albuquerque Center
08:56PM 34.7756 -107.2736 282° West 379 436 38,000 -60 Descending Albuquerque Center
08:57PM 34.7983 -107.4094 282° West 380 437 38,000  Level Albuquerque Center
08:58PM 34.8153 -107.5353 279° West 380 437 38,000  Level Albuquerque Center
08:59PM 34.8358 -107.6636 281° West 386 444 38,000  Level Albuquerque Center
09:00PM 34.8564 -107.7917 281° West 386 444 38,000  Level Albuquerque Center
09:01PM 34.8767 -107.9211 281° West 387 445 38,000  Level Albuquerque Center
09:02PM 34.8981 -108.0517 281° West 392 451 38,100  Climbing Albuquerque Center
09:03PM 34.9197 -108.1953 280° West 386 444 38,000 -60 Descending Albuquerque Center
09:04PM 34.9383 -108.3183 280° West 385 443 38,000  Level Albuquerque Center
09:05PM 34.9608 -108.4600 281° West 383 441 38,000  Level Albuquerque Center
09:06PM 34.9803 -108.5828 281° West 383 441 38,000  Level Albuquerque Center
09:07PM 34.9992 -108.7097 280° West 391 450 38,000  Level Albuquerque Center
09:08PM 35.0217 -108.8575 281° West 395 455 38,000  Level Albuquerque Center
09:09PM 35.0403 -108.9839 280° West 395 455 38,000  Level Albuquerque Center
09:10PM 35.0622 -109.1319 280° West 395 455 38,000  Level Albuquerque Center
09:11PM 35.0814 -109.2569 281° West 393 452 38,000  Level Albuquerque Center
09:12PM 35.0989 -109.3839 280° West 393 452 38,000  Level Albuquerque Center
09:13PM 35.1206 -109.5328 280° West 396 456 38,000  Level Albuquerque Center
09:14PM 35.1394 -109.6597 280° West 397 457 38,000  Level Albuquerque Center
09:15PM 35.1603 -109.8075 280° West 396 456 38,000  Level Albuquerque Center
09:16PM 35.1797 -109.9406 280° West 405 466 38,000  Level Albuquerque Center
09:17PM 35.1978 -110.0694 280° West 404 465 38,000  Level Albuquerque Center
09:18PM 35.2169 -110.2178 279° West 399 459 38,000 -180 Level Albuquerque Center
09:19PM 35.2344 -110.3464 279° West 399 459 37,700 -540 Descending Albuquerque Center
09:20PM 35.2517 -110.4983 278° West 402 463 37,000 -720 Descending Albuquerque Center
09:21PM 35.2683 -110.6281 279° West 404 465 36,300 -720 Descending Albuquerque Center
09:22PM 35.2911 -110.7808 280° West 407 468 35,600 -660 Descending Albuquerque Center
09:23PM 35.3072 -110.9061 279° West 397 457 35,000 -660 Descending Albuquerque Center
09:24PM 35.3225 -111.0297 279° West 389 448 34,300 -780 Descending Albuquerque Center
09:25PM 35.3419 -111.1753 279° West 388 447 33,500 -1,260 Descending Albuquerque Center
09:26PM 35.3572 -111.2975 279° West 384 442 31,800 -1,740 Descending Albuquerque Center
09:27PM 35.3739 -111.4231 279° West 367 422 30,000 -900 Descending Albuquerque Center
09:28PM 35.3883 -111.5461 278° West 368 423 30,000  Level Albuquerque Center
09:29PM 35.4039 -111.6661 279° West 362 417 30,000  Level Albuquerque Center
09:31PM 35.4192 -111.7869 279° West 360 414 30,000  Level Albuquerque Center
09:32PM 35.4336 -111.9086 278° West 362 417 30,000  Level Albuquerque Center
09:33PM 35.4519 -112.0550 279° West 364 419 30,000  Level Albuquerque Center
09:34PM 35.4675 -112.1842 278° West 377 434 30,000  Level Albuquerque Center
09:35PM 35.4836 -112.3167 279° West 389 448 30,000  Level Albuquerque Center
09:36PM 35.4994 -112.4472 279° West 391 450 30,000  Level Albuquerque Center
09:37PM 35.5183 -112.6056 278° West 393 452 30,000  Level Los Angeles Center
09:38PM 35.5328 -112.7250 278° West 396 456 30,000  Level Los Angeles Center
09:39PM 35.5508 -112.8864 278° West 397 457 30,000  Level Los Angeles Center
09:40PM 35.5653 -113.0222 277° West 401 461 30,000  Level Los Angeles Center
09:41PM 35.5814 -113.1592 278° West 404 465 30,000 -300 Level Los Angeles Center
09:42PM 35.5978 -113.3028 278° West 408 470 29,400 -960 Descending Los Angeles Center
09:43PM 35.6128 -113.4369 278° West 403 464 28,100 -1,920 Descending Los Angeles Center
09:44PM 35.6281 -113.5719 278° West 402 463 25,500 -2,460 Descending Los Angeles Center
09:45PM 35.6469 -113.7047 280° West 398 458 23,100 -2,340 Descending Los Angeles Center
09:46PM 35.6656 -113.8331 280° West 386 444 20,700 -2,340 Descending Los Angeles Center
09:47PM 35.6847 -113.9594 281° West 381 438 18,400 -2,460 Descending Los Angeles Center
09:48PM 35.7042 -114.0961 280° West 353 406 15,700 -2,460 Descending Los Angeles Center
09:49PM 35.7197 -114.2244 279° West 355 409 13,300 -1,620 Descending Los Angeles Center
09:50PM 35.7322 -114.3244 279° West 338 389 12,400 -900 Descending Los Angeles Center
09:51PM 35.7739 -114.4092 301° West 320 368 11,600 -960 Descending Los Angeles Center
09:51PM 35.7842 -114.4150 335° Northwest 312 359 11,400 -1,080 Descending Los Angeles Center
09:52PM 35.8392 -114.4761 318° Northwest 295 339 10,600 -720 Descending Los Angeles Center
09:52PM 35.8375 -114.4733 127° Southeast 306 352 10,700 -480 Climbing Los Angeles Center
09:53PM 35.9000 -114.5397 319° Northwest 300 345 10,100 -1,200 Descending Los Angeles Center
09:54PM 35.9564 -114.6333 307° West 289 333 8,300 -1,680 Descending Los Angeles Center
09:54PM 35.9575 -114.6319 45° Northeast 290 334 8,400 -540 Climbing Los Angeles Center
09:55PM 35.9933 -114.7114 299° West 266 306 7,800 -600 Descending Los Angeles Center
09:55PM 35.9947 -114.7117 351° North 279 321 7,800 -840 Level Los Angeles Center
09:56PM 36.0297 -114.7792 303° West 242 278 7,000 -720 Descending Los Angeles Center
09:56PM 36.0286 -114.7794 191° South 250 288 7,100 60 Climbing Los Angeles Center
09:57PM 36.0611 -114.8431 302° West 236 272 7,100  Level Los Angeles Center
09:57PM 36.0636 -114.8489 298° West 242 278 7,100 -840 Level Los Angeles Center
09:58PM 36.0725 -114.9139 280° West 185 213 6,200 -900 Descending Los Angeles Center
09:58PM 36.0733 -114.9150 313° West 193 222 6,200 -1,680 Level Los Angeles Center
09:59PM 36.0733 -114.9775 270° West 175 201 4,500 -1,800 Descending Los Angeles Center
09:59PM 36.0739 -114.9831 277° West 182 209 4,400 -1,080 Descending Los Angeles Center
10:00PM 36.0736 -115.0431 270° West 177 204 3,300 -900 Descending Los Angeles Center
10:01PM 36.0739 -115.0892 270° West 148 170 2,700 -720 Descending Los Angeles Center
10:01PM 36.0733 -115.0928 259° West 146 168 2,600 -660 Descending Los Angeles Center
10:02PM 36.0725 -115.1350 269° West 138 159 2,000 -600 Descending Los Angeles Center